sensor_id;sensor_type;location;lat;lon;timestamp;P1;durP1;ratioP1;P2;durP2;ratioP2
45049;SDS011;61798;48.048;-1.928;2023-04-25T00:01:40;9.10;;;2.78;;
45049;SDS011;61798;48.048;-1.928;2023-04-25T00:03:47;10.80;;;3.10;;
45049;SDS011;61798;48.048;-1.928;2023-04-25T00:05:54;9.00;;;3.05;;
45049;SDS011;61798;48.048;-1.928;2023-04-25T00:08:02;8.07;;;2.72;;
45049;SDS011;61798;48.048;-1.928;2023-04-25T00:10:10;7.47;;;2.70;;
45049;SDS011;61798;48.048;-1.928;2023-04-25T00:12:17;6.30;;;2.53;;
45049;SDS011;61798;48.048;-1.928;2023-04-25T00:14:24;9.90;;;3.28;;
45049;SDS011;61798;48.048;-1.928;2023-04-25T00:16:30;15.95;;;3.05;;
45049;SDS011;61798;48.048;-1.928;2023-04-25T00:18:39;10.00;;;3.13;;
45049;SDS011;61798;48.048;-1.928;2023-04-25T00:20:46;12.50;;;3.00;;
45049;SDS011;61798;48.048;-1.928;2023-04-25T00:22:52;13.13;;;2.83;;
45049;SDS011;61798;48.048;-1.928;2023-04-25T00:24:59;7.18;;;2.80;;
45049;SDS011;61798;48.048;-1.928;2023-04-25T00:27:05;6.63;;;2.83;;
45049;SDS011;61798;48.048;-1.928;2023-04-25T00:29:12;8.10;;;2.95;;
45049;SDS011;61798;48.048;-1.928;2023-04-25T00:31:20;9.23;;;3.28;;
45049;SDS011;61798;48.048;-1.928;2023-04-25T00:33:25;9.23;;;2.97;;
45049;SDS011;61798;48.048;-1.928;2023-04-25T00:35:33;7.25;;;2.58;;
45049;SDS011;61798;48.048;-1.928;2023-04-25T00:37:39;7.07;;;3.15;;
45049;SDS011;61798;48.048;-1.928;2023-04-25T00:39:46;10.45;;;3.45;;
45049;SDS011;61798;48.048;-1.928;2023-04-25T00:41:52;9.23;;;3.20;;
45049;SDS011;61798;48.048;-1.928;2023-04-25T00:44:00;9.02;;;3.17;;
45049;SDS011;61798;48.048;-1.928;2023-04-25T00:46:07;9.23;;;3.80;;
45049;SDS011;61798;48.048;-1.928;2023-04-25T00:48:14;12.95;;;3.80;;
45049;SDS011;61798;48.048;-1.928;2023-04-25T00:50:21;8.75;;;3.55;;
45049;SDS011;61798;48.048;-1.928;2023-04-25T00:52:27;15.00;;;3.60;;
45049;SDS011;61798;48.048;-1.928;2023-04-25T00:54:34;7.07;;;3.22;;
45049;SDS011;61798;48.048;-1.928;2023-04-25T00:56:40;7.20;;;2.80;;
45049;SDS011;61798;48.048;-1.928;2023-04-25T00:58:47;8.02;;;2.80;;
45049;SDS011;61798;48.048;-1.928;2023-04-25T01:00:55;11.77;;;3.20;;
45049;SDS011;61798;48.048;-1.928;2023-04-25T01:03:01;6.63;;;3.45;;
45049;SDS011;61798;48.048;-1.928;2023-04-25T01:05:10;8.65;;;3.80;;
45049;SDS011;61798;48.048;-1.928;2023-04-25T01:07:17;9.13;;;3.60;;
45049;SDS011;61798;48.048;-1.928;2023-04-25T01:09:24;12.15;;;3.55;;
45049;SDS011;61798;48.048;-1.928;2023-04-25T01:11:30;8.20;;;3.70;;
45049;SDS011;61798;48.048;-1.928;2023-04-25T01:13:36;9.23;;;3.67;;
45049;SDS011;61798;48.048;-1.928;2023-04-25T01:15:43;9.60;;;4.10;;
45049;SDS011;61798;48.048;-1.928;2023-04-25T01:17:49;11.63;;;3.42;;
45049;SDS011;61798;48.048;-1.928;2023-04-25T01:19:56;6.63;;;3.30;;
45049;SDS011;61798;48.048;-1.928;2023-04-25T01:22:02;10.20;;;3.50;;
45049;SDS011;61798;48.048;-1.928;2023-04-25T01:24:09;8.00;;;3.13;;
45049;SDS011;61798;48.048;-1.928;2023-04-25T01:26:16;7.82;;;3.00;;
45049;SDS011;61798;48.048;-1.928;2023-04-25T01:28:22;6.53;;;2.88;;
45049;SDS011;61798;48.048;-1.928;2023-04-25T01:30:30;11.07;;;3.28;;
45049;SDS011;61798;48.048;-1.928;2023-04-25T01:32:36;5.65;;;2.58;;
45049;SDS011;61798;48.048;-1.928;2023-04-25T01:34:46;11.45;;;3.30;;
45049;SDS011;61798;48.048;-1.928;2023-04-25T01:36:51;12.52;;;3.10;;
45049;SDS011;61798;48.048;-1.928;2023-04-25T01:38:58;7.10;;;3.00;;
45049;SDS011;61798;48.048;-1.928;2023-04-25T01:41:07;9.00;;;3.20;;
45049;SDS011;61798;48.048;-1.928;2023-04-25T01:43:13;11.63;;;3.28;;
45049;SDS011;61798;48.048;-1.928;2023-04-25T01:45:20;12.25;;;4.47;;
45049;SDS011;61798;48.048;-1.928;2023-04-25T01:47:26;11.27;;;4.13;;
45049;SDS011;61798;48.048;-1.928;2023-04-25T01:49:33;10.93;;;4.18;;
45049;SDS011;61798;48.048;-1.928;2023-04-25T01:51:39;9.13;;;3.38;;
45049;SDS011;61798;48.048;-1.928;2023-04-25T01:53:46;6.78;;;2.83;;
45049;SDS011;61798;48.048;-1.928;2023-04-25T01:55:52;11.88;;;3.83;;
45049;SDS011;61798;48.048;-1.928;2023-04-25T01:58:00;11.40;;;3.65;;
45049;SDS011;61798;48.048;-1.928;2023-04-25T02:00:08;9.65;;;3.08;;
45049;SDS011;61798;48.048;-1.928;2023-04-25T02:02:15;11.48;;;3.55;;
45049;SDS011;61798;48.048;-1.928;2023-04-25T02:04:22;9.27;;;3.40;;
45049;SDS011;61798;48.048;-1.928;2023-04-25T02:06:28;6.05;;;3.03;;
45049;SDS011;61798;48.048;-1.928;2023-04-25T02:08:35;7.40;;;3.20;;
45049;SDS011;61798;48.048;-1.928;2023-04-25T02:10:42;6.97;;;2.95;;
45049;SDS011;61798;48.048;-1.928;2023-04-25T02:12:48;7.68;;;2.85;;
45049;SDS011;61798;48.048;-1.928;2023-04-25T02:14:55;6.80;;;3.13;;
45049;SDS011;61798;48.048;-1.928;2023-04-25T02:17:01;8.45;;;3.35;;
45049;SDS011;61798;48.048;-1.928;2023-04-25T02:19:08;8.10;;;3.45;;
45049;SDS011;61798;48.048;-1.928;2023-04-25T02:21:14;7.63;;;3.53;;
45049;SDS011;61798;48.048;-1.928;2023-04-25T02:23:21;8.32;;;3.17;;
45049;SDS011;61798;48.048;-1.928;2023-04-25T02:25:27;11.18;;;3.92;;
45049;SDS011;61798;48.048;-1.928;2023-04-25T02:27:34;6.00;;;3.35;;
45049;SDS011;61798;48.048;-1.928;2023-04-25T02:29:41;8.07;;;4.35;;
45049;SDS011;61798;48.048;-1.928;2023-04-25T02:31:47;8.68;;;3.70;;
45049;SDS011;61798;48.048;-1.928;2023-04-25T02:33:54;10.88;;;3.72;;
45049;SDS011;61798;48.048;-1.928;2023-04-25T02:36:00;7.78;;;3.42;;
45049;SDS011;61798;48.048;-1.928;2023-04-25T02:38:06;11.65;;;3.70;;
45049;SDS011;61798;48.048;-1.928;2023-04-25T02:40:13;6.90;;;3.50;;
45049;SDS011;61798;48.048;-1.928;2023-04-25T02:42:19;7.18;;;3.60;;
45049;SDS011;61798;48.048;-1.928;2023-04-25T02:44:26;9.48;;;3.38;;
45049;SDS011;61798;48.048;-1.928;2023-04-25T02:46:32;8.60;;;3.47;;
45049;SDS011;61798;48.048;-1.928;2023-04-25T02:48:38;4.32;;;3.15;;
45049;SDS011;61798;48.048;-1.928;2023-04-25T02:50:43;7.85;;;3.40;;
45049;SDS011;61798;48.048;-1.928;2023-04-25T02:52:51;9.27;;;3.45;;
45049;SDS011;61798;48.048;-1.928;2023-04-25T02:54:57;9.48;;;3.30;;
45049;SDS011;61798;48.048;-1.928;2023-04-25T02:57:04;5.85;;;3.30;;
45049;SDS011;61798;48.048;-1.928;2023-04-25T02:59:10;10.70;;;3.50;;
45049;SDS011;61798;48.048;-1.928;2023-04-25T03:01:17;7.93;;;3.20;;
45049;SDS011;61798;48.048;-1.928;2023-04-25T03:03:23;5.85;;;3.00;;
45049;SDS011;61798;48.048;-1.928;2023-04-25T03:05:29;6.93;;;2.95;;
45049;SDS011;61798;48.048;-1.928;2023-04-25T03:07:35;7.53;;;3.17;;
45049;SDS011;61798;48.048;-1.928;2023-04-25T03:09:41;8.43;;;2.70;;
45049;SDS011;61798;48.048;-1.928;2023-04-25T03:11:48;6.40;;;2.70;;
45049;SDS011;61798;48.048;-1.928;2023-04-25T03:13:54;6.85;;;3.13;;
45049;SDS011;61798;48.048;-1.928;2023-04-25T03:16:00;9.85;;;2.90;;
45049;SDS011;61798;48.048;-1.928;2023-04-25T03:18:07;7.68;;;2.75;;
45049;SDS011;61798;48.048;-1.928;2023-04-25T03:20:14;9.45;;;2.75;;
45049;SDS011;61798;48.048;-1.928;2023-04-25T03:22:21;7.63;;;2.97;;
45049;SDS011;61798;48.048;-1.928;2023-04-25T03:24:28;7.85;;;2.67;;
45049;SDS011;61798;48.048;-1.928;2023-04-25T03:26:34;6.57;;;3.50;;
45049;SDS011;61798;48.048;-1.928;2023-04-25T03:28:41;8.30;;;3.00;;
45049;SDS011;61798;48.048;-1.928;2023-04-25T03:30:47;7.22;;;2.70;;
45049;SDS011;61798;48.048;-1.928;2023-04-25T03:32:53;8.07;;;3.03;;
45049;SDS011;61798;48.048;-1.928;2023-04-25T03:35:00;13.15;;;3.30;;
45049;SDS011;61798;48.048;-1.928;2023-04-25T03:37:06;8.18;;;3.25;;
45049;SDS011;61798;48.048;-1.928;2023-04-25T03:39:13;13.23;;;3.50;;
45049;SDS011;61798;48.048;-1.928;2023-04-25T03:41:19;11.30;;;3.30;;
45049;SDS011;61798;48.048;-1.928;2023-04-25T03:43:27;13.23;;;4.93;;
45049;SDS011;61798;48.048;-1.928;2023-04-25T03:45:32;11.32;;;4.55;;
45049;SDS011;61798;48.048;-1.928;2023-04-25T03:47:38;15.00;;;4.15;;
45049;SDS011;61798;48.048;-1.928;2023-04-25T03:49:45;10.02;;;3.92;;
45049;SDS011;61798;48.048;-1.928;2023-04-25T03:51:51;8.20;;;3.70;;
45049;SDS011;61798;48.048;-1.928;2023-04-25T03:53:59;8.70;;;3.28;;
45049;SDS011;61798;48.048;-1.928;2023-04-25T03:56:05;7.97;;;3.30;;
45049;SDS011;61798;48.048;-1.928;2023-04-25T03:58:11;14.27;;;3.15;;
45049;SDS011;61798;48.048;-1.928;2023-04-25T04:00:18;8.30;;;2.78;;
45049;SDS011;61798;48.048;-1.928;2023-04-25T04:02:24;6.20;;;2.60;;
45049;SDS011;61798;48.048;-1.928;2023-04-25T04:04:31;8.15;;;2.88;;
45049;SDS011;61798;48.048;-1.928;2023-04-25T04:06:36;6.90;;;2.60;;
45049;SDS011;61798;48.048;-1.928;2023-04-25T04:08:44;8.80;;;2.58;;
45049;SDS011;61798;48.048;-1.928;2023-04-25T04:10:50;8.23;;;3.45;;
45049;SDS011;61798;48.048;-1.928;2023-04-25T04:12:56;9.35;;;2.75;;
45049;SDS011;61798;48.048;-1.928;2023-04-25T04:15:02;9.02;;;3.28;;
45049;SDS011;61798;48.048;-1.928;2023-04-25T04:17:09;5.93;;;2.60;;
45049;SDS011;61798;48.048;-1.928;2023-04-25T04:19:17;6.30;;;2.58;;
45049;SDS011;61798;48.048;-1.928;2023-04-25T04:21:22;7.40;;;2.60;;
45049;SDS011;61798;48.048;-1.928;2023-04-25T04:23:29;12.02;;;3.15;;
45049;SDS011;61798;48.048;-1.928;2023-04-25T04:25:35;5.97;;;2.40;;
45049;SDS011;61798;48.048;-1.928;2023-04-25T04:27:42;11.05;;;3.05;;
45049;SDS011;61798;48.048;-1.928;2023-04-25T04:29:51;8.75;;;2.58;;
45049;SDS011;61798;48.048;-1.928;2023-04-25T04:31:58;11.13;;;2.85;;
45049;SDS011;61798;48.048;-1.928;2023-04-25T04:34:07;10.63;;;3.30;;
45049;SDS011;61798;48.048;-1.928;2023-04-25T04:36:13;10.15;;;3.17;;
45049;SDS011;61798;48.048;-1.928;2023-04-25T04:38:20;6.22;;;2.40;;
45049;SDS011;61798;48.048;-1.928;2023-04-25T04:40:26;8.23;;;3.15;;
45049;SDS011;61798;48.048;-1.928;2023-04-25T04:42:32;17.77;;;3.28;;
45049;SDS011;61798;48.048;-1.928;2023-04-25T04:44:40;13.98;;;4.13;;
45049;SDS011;61798;48.048;-1.928;2023-04-25T04:46:47;11.85;;;3.33;;
45049;SDS011;61798;48.048;-1.928;2023-04-25T04:48:53;8.88;;;3.40;;
45049;SDS011;61798;48.048;-1.928;2023-04-25T04:51:02;9.85;;;3.00;;
45049;SDS011;61798;48.048;-1.928;2023-04-25T04:53:08;7.22;;;3.15;;
45049;SDS011;61798;48.048;-1.928;2023-04-25T04:55:15;5.13;;;3.00;;
45049;SDS011;61798;48.048;-1.928;2023-04-25T04:57:22;10.60;;;3.22;;
45049;SDS011;61798;48.048;-1.928;2023-04-25T04:59:29;6.70;;;3.28;;
45049;SDS011;61798;48.048;-1.928;2023-04-25T05:01:37;9.48;;;3.55;;
45049;SDS011;61798;48.048;-1.928;2023-04-25T05:03:55;7.75;;;2.97;;
45049;SDS011;61798;48.048;-1.928;2023-04-25T05:06:06;10.93;;;3.17;;
45049;SDS011;61798;48.048;-1.928;2023-04-25T05:08:15;9.18;;;3.30;;
45049;SDS011;61798;48.048;-1.928;2023-04-25T05:10:22;8.65;;;2.90;;
45049;SDS011;61798;48.048;-1.928;2023-04-25T05:12:30;6.00;;;3.22;;
45049;SDS011;61798;48.048;-1.928;2023-04-25T05:14:37;16.95;;;3.60;;
45049;SDS011;61798;48.048;-1.928;2023-04-25T05:16:44;8.93;;;3.20;;
45049;SDS011;61798;48.048;-1.928;2023-04-25T05:18:51;7.82;;;3.58;;
45049;SDS011;61798;48.048;-1.928;2023-04-25T05:20:58;8.15;;;3.55;;
45049;SDS011;61798;48.048;-1.928;2023-04-25T05:23:06;10.20;;;3.42;;
45049;SDS011;61798;48.048;-1.928;2023-04-25T05:25:13;5.32;;;3.08;;
45049;SDS011;61798;48.048;-1.928;2023-04-25T05:27:22;5.25;;;3.30;;
45049;SDS011;61798;48.048;-1.928;2023-04-25T05:29:29;7.97;;;3.38;;
45049;SDS011;61798;48.048;-1.928;2023-04-25T05:31:36;4.75;;;3.08;;
45049;SDS011;61798;48.048;-1.928;2023-04-25T05:33:43;10.52;;;3.42;;
45049;SDS011;61798;48.048;-1.928;2023-04-25T05:35:50;9.15;;;3.72;;
45049;SDS011;61798;48.048;-1.928;2023-04-25T05:37:58;10.13;;;3.55;;
45049;SDS011;61798;48.048;-1.928;2023-04-25T05:40:05;5.75;;;3.45;;
45049;SDS011;61798;48.048;-1.928;2023-04-25T05:42:13;8.65;;;3.55;;
45049;SDS011;61798;48.048;-1.928;2023-04-25T05:44:20;7.20;;;3.40;;
45049;SDS011;61798;48.048;-1.928;2023-04-25T05:46:27;8.35;;;3.53;;
45049;SDS011;61798;48.048;-1.928;2023-04-25T05:48:34;6.88;;;3.65;;
45049;SDS011;61798;48.048;-1.928;2023-04-25T05:50:42;8.35;;;3.83;;
45049;SDS011;61798;48.048;-1.928;2023-04-25T05:52:49;6.13;;;3.40;;
45049;SDS011;61798;48.048;-1.928;2023-04-25T05:54:57;6.65;;;3.65;;
45049;SDS011;61798;48.048;-1.928;2023-04-25T05:57:04;8.55;;;4.00;;
45049;SDS011;61798;48.048;-1.928;2023-04-25T05:59:11;9.88;;;3.80;;
45049;SDS011;61798;48.048;-1.928;2023-04-25T06:01:21;10.48;;;3.42;;
45049;SDS011;61798;48.048;-1.928;2023-04-25T06:03:29;9.20;;;3.88;;
45049;SDS011;61798;48.048;-1.928;2023-04-25T06:05:37;9.95;;;4.20;;
45049;SDS011;61798;48.048;-1.928;2023-04-25T06:07:44;5.55;;;3.55;;
45049;SDS011;61798;48.048;-1.928;2023-04-25T06:09:51;6.88;;;3.50;;
45049;SDS011;61798;48.048;-1.928;2023-04-25T06:11:58;9.13;;;3.47;;
45049;SDS011;61798;48.048;-1.928;2023-04-25T06:14:05;6.45;;;3.63;;
45049;SDS011;61798;48.048;-1.928;2023-04-25T06:16:12;6.65;;;3.38;;
45049;SDS011;61798;48.048;-1.928;2023-04-25T06:18:20;8.05;;;3.70;;
45049;SDS011;61798;48.048;-1.928;2023-04-25T06:20:27;9.43;;;4.20;;
45049;SDS011;61798;48.048;-1.928;2023-04-25T06:22:33;8.88;;;4.00;;
45049;SDS011;61798;48.048;-1.928;2023-04-25T06:24:40;7.65;;;3.70;;
45049;SDS011;61798;48.048;-1.928;2023-04-25T06:26:46;10.85;;;4.22;;
45049;SDS011;61798;48.048;-1.928;2023-04-25T06:28:54;8.23;;;4.18;;
45049;SDS011;61798;48.048;-1.928;2023-04-25T06:31:01;9.65;;;4.15;;
45049;SDS011;61798;48.048;-1.928;2023-04-25T06:33:07;13.15;;;5.03;;
45049;SDS011;61798;48.048;-1.928;2023-04-25T06:35:15;15.63;;;4.47;;
45049;SDS011;61798;48.048;-1.928;2023-04-25T06:37:22;9.15;;;4.35;;
45049;SDS011;61798;48.048;-1.928;2023-04-25T06:39:29;12.43;;;4.70;;
45049;SDS011;61798;48.048;-1.928;2023-04-25T06:41:36;12.05;;;4.07;;
45049;SDS011;61798;48.048;-1.928;2023-04-25T06:43:44;14.15;;;4.40;;
45049;SDS011;61798;48.048;-1.928;2023-04-25T06:45:51;12.15;;;5.00;;
45049;SDS011;61798;48.048;-1.928;2023-04-25T06:47:56;11.35;;;4.15;;
45049;SDS011;61798;48.048;-1.928;2023-04-25T06:50:04;7.00;;;4.00;;
45049;SDS011;61798;48.048;-1.928;2023-04-25T06:52:13;14.30;;;4.85;;
45049;SDS011;61798;48.048;-1.928;2023-04-25T06:54:20;16.85;;;5.57;;
45049;SDS011;61798;48.048;-1.928;2023-04-25T06:56:28;10.35;;;5.70;;
45049;SDS011;61798;48.048;-1.928;2023-04-25T06:58:36;10.95;;;5.22;;
45049;SDS011;61798;48.048;-1.928;2023-04-25T07:00:43;9.52;;;4.50;;
45049;SDS011;61798;48.048;-1.928;2023-04-25T07:02:50;10.88;;;5.03;;
45049;SDS011;61798;48.048;-1.928;2023-04-25T07:04:57;9.45;;;5.32;;
45049;SDS011;61798;48.048;-1.928;2023-04-25T07:07:06;11.35;;;5.03;;
45049;SDS011;61798;48.048;-1.928;2023-04-25T07:09:13;8.90;;;4.38;;
45049;SDS011;61798;48.048;-1.928;2023-04-25T07:11:19;9.38;;;4.78;;
45049;SDS011;61798;48.048;-1.928;2023-04-25T07:13:26;11.95;;;5.53;;
45049;SDS011;61798;48.048;-1.928;2023-04-25T07:15:33;9.50;;;4.80;;
45049;SDS011;61798;48.048;-1.928;2023-04-25T07:17:40;10.70;;;5.53;;
45049;SDS011;61798;48.048;-1.928;2023-04-25T07:19:48;10.77;;;6.60;;
45049;SDS011;61798;48.048;-1.928;2023-04-25T07:21:54;14.55;;;6.95;;
45049;SDS011;61798;48.048;-1.928;2023-04-25T07:24:04;11.00;;;5.45;;
45049;SDS011;61798;48.048;-1.928;2023-04-25T07:26:12;13.43;;;6.65;;
45049;SDS011;61798;48.048;-1.928;2023-04-25T07:28:18;12.82;;;6.07;;
45049;SDS011;61798;48.048;-1.928;2023-04-25T07:30:25;12.13;;;5.57;;
45049;SDS011;61798;48.048;-1.928;2023-04-25T07:32:32;12.75;;;5.05;;
45049;SDS011;61798;48.048;-1.928;2023-04-25T07:34:39;9.80;;;5.32;;
45049;SDS011;61798;48.048;-1.928;2023-04-25T07:36:45;14.60;;;5.68;;
45049;SDS011;61798;48.048;-1.928;2023-04-25T07:38:52;8.38;;;4.70;;
45049;SDS011;61798;48.048;-1.928;2023-04-25T07:40:58;10.73;;;4.80;;
45049;SDS011;61798;48.048;-1.928;2023-04-25T07:43:03;7.22;;;4.43;;
45049;SDS011;61798;48.048;-1.928;2023-04-25T07:45:11;10.30;;;4.65;;
45049;SDS011;61798;48.048;-1.928;2023-04-25T07:47:16;14.45;;;5.10;;
45049;SDS011;61798;48.048;-1.928;2023-04-25T07:49:25;7.95;;;4.82;;
45049;SDS011;61798;48.048;-1.928;2023-04-25T07:51:31;8.57;;;4.70;;
45049;SDS011;61798;48.048;-1.928;2023-04-25T07:53:37;12.30;;;5.20;;
45049;SDS011;61798;48.048;-1.928;2023-04-25T07:55:44;8.60;;;5.10;;
45049;SDS011;61798;48.048;-1.928;2023-04-25T07:57:50;11.45;;;4.40;;
45049;SDS011;61798;48.048;-1.928;2023-04-25T07:59:57;11.50;;;5.43;;
45049;SDS011;61798;48.048;-1.928;2023-04-25T08:02:03;10.27;;;5.28;;
45049;SDS011;61798;48.048;-1.928;2023-04-25T08:04:10;10.35;;;5.22;;
45049;SDS011;61798;48.048;-1.928;2023-04-25T08:06:16;11.05;;;5.20;;
45049;SDS011;61798;48.048;-1.928;2023-04-25T08:08:22;9.93;;;4.70;;
45049;SDS011;61798;48.048;-1.928;2023-04-25T08:10:29;9.13;;;5.35;;
45049;SDS011;61798;48.048;-1.928;2023-04-25T08:12:35;8.70;;;4.90;;
45049;SDS011;61798;48.048;-1.928;2023-04-25T08:14:42;11.23;;;5.93;;
45049;SDS011;61798;48.048;-1.928;2023-04-25T08:16:48;11.45;;;6.55;;
45049;SDS011;61798;48.048;-1.928;2023-04-25T08:18:55;20.52;;;10.10;;
45049;SDS011;61798;48.048;-1.928;2023-04-25T08:21:02;25.52;;;14.02;;
45049;SDS011;61798;48.048;-1.928;2023-04-25T08:23:10;33.92;;;18.92;;
45049;SDS011;61798;48.048;-1.928;2023-04-25T08:25:17;15.68;;;6.63;;
45049;SDS011;61798;48.048;-1.928;2023-04-25T08:27:23;10.82;;;7.55;;
45049;SDS011;61798;48.048;-1.928;2023-04-25T08:29:30;10.98;;;5.45;;
45049;SDS011;61798;48.048;-1.928;2023-04-25T08:31:36;13.48;;;5.80;;
45049;SDS011;61798;48.048;-1.928;2023-04-25T08:33:42;11.27;;;5.50;;
45049;SDS011;61798;48.048;-1.928;2023-04-25T08:35:51;9.52;;;5.95;;
45049;SDS011;61798;48.048;-1.928;2023-04-25T08:37:57;10.13;;;5.28;;
45049;SDS011;61798;48.048;-1.928;2023-04-25T08:40:04;7.13;;;4.90;;
45049;SDS011;61798;48.048;-1.928;2023-04-25T08:42:12;9.70;;;5.00;;
45049;SDS011;61798;48.048;-1.928;2023-04-25T08:44:20;10.85;;;6.25;;
45049;SDS011;61798;48.048;-1.928;2023-04-25T08:46:27;12.02;;;5.45;;
45049;SDS011;61798;48.048;-1.928;2023-04-25T08:48:34;8.52;;;5.78;;
45049;SDS011;61798;48.048;-1.928;2023-04-25T08:50:46;9.98;;;5.50;;
45049;SDS011;61798;48.048;-1.928;2023-04-25T08:52:57;11.27;;;5.60;;
45049;SDS011;61798;48.048;-1.928;2023-04-25T08:55:07;10.98;;;5.07;;
45049;SDS011;61798;48.048;-1.928;2023-04-25T08:57:16;8.60;;;4.50;;
45049;SDS011;61798;48.048;-1.928;2023-04-25T08:59:22;8.13;;;4.38;;
45049;SDS011;61798;48.048;-1.928;2023-04-25T09:01:30;8.73;;;4.30;;
45049;SDS011;61798;48.048;-1.928;2023-04-25T09:03:36;7.47;;;4.30;;
45049;SDS011;61798;48.048;-1.928;2023-04-25T09:05:42;10.68;;;4.70;;
45049;SDS011;61798;48.048;-1.928;2023-04-25T09:07:49;11.55;;;5.03;;
45049;SDS011;61798;48.048;-1.928;2023-04-25T09:09:55;6.57;;;4.43;;
45049;SDS011;61798;48.048;-1.928;2023-04-25T09:12:02;8.10;;;4.28;;
45049;SDS011;61798;48.048;-1.928;2023-04-25T09:14:15;5.03;;;3.90;;
45049;SDS011;61798;48.048;-1.928;2023-04-25T09:16:31;6.72;;;3.83;;
45049;SDS011;61798;48.048;-1.928;2023-04-25T09:18:38;6.65;;;4.30;;
45049;SDS011;61798;48.048;-1.928;2023-04-25T09:20:43;9.68;;;4.60;;
45049;SDS011;61798;48.048;-1.928;2023-04-25T09:22:49;10.02;;;4.20;;
45049;SDS011;61798;48.048;-1.928;2023-04-25T09:25:12;10.25;;;5.72;;
45049;SDS011;61798;48.048;-1.928;2023-04-25T09:27:21;10.13;;;5.22;;
45049;SDS011;61798;48.048;-1.928;2023-04-25T09:29:32;8.98;;;4.55;;
45049;SDS011;61798;48.048;-1.928;2023-04-25T09:31:40;7.68;;;4.03;;
45049;SDS011;61798;48.048;-1.928;2023-04-25T09:33:47;5.88;;;3.70;;
45049;SDS011;61798;48.048;-1.928;2023-04-25T09:35:53;10.45;;;5.18;;
45049;SDS011;61798;48.048;-1.928;2023-04-25T09:38:00;9.38;;;4.15;;
45049;SDS011;61798;48.048;-1.928;2023-04-25T09:40:08;8.70;;;3.65;;
45049;SDS011;61798;48.048;-1.928;2023-04-25T09:42:16;6.57;;;3.47;;
45049;SDS011;61798;48.048;-1.928;2023-04-25T09:44:24;6.63;;;3.42;;
45049;SDS011;61798;48.048;-1.928;2023-04-25T09:46:33;6.82;;;2.88;;
45049;SDS011;61798;48.048;-1.928;2023-04-25T09:48:53;6.07;;;2.63;;
45049;SDS011;61798;48.048;-1.928;2023-04-25T09:51:14;6.80;;;3.17;;
45049;SDS011;61798;48.048;-1.928;2023-04-25T09:53:20;3.67;;;2.40;;
45049;SDS011;61798;48.048;-1.928;2023-04-25T09:55:27;4.63;;;2.92;;
45049;SDS011;61798;48.048;-1.928;2023-04-25T09:57:33;4.88;;;2.80;;
45049;SDS011;61798;48.048;-1.928;2023-04-25T09:59:52;6.13;;;3.20;;
45049;SDS011;61798;48.048;-1.928;2023-04-25T10:01:59;5.90;;;3.47;;
45049;SDS011;61798;48.048;-1.928;2023-04-25T10:04:07;6.15;;;3.75;;
45049;SDS011;61798;48.048;-1.928;2023-04-25T10:06:19;7.15;;;3.63;;
45049;SDS011;61798;48.048;-1.928;2023-04-25T10:08:29;5.82;;;3.42;;
45049;SDS011;61798;48.048;-1.928;2023-04-25T10:10:39;8.80;;;3.88;;
45049;SDS011;61798;48.048;-1.928;2023-04-25T10:12:45;6.28;;;3.90;;
45049;SDS011;61798;48.048;-1.928;2023-04-25T10:14:53;6.10;;;3.72;;
45049;SDS011;61798;48.048;-1.928;2023-04-25T10:17:00;6.00;;;3.25;;
45049;SDS011;61798;48.048;-1.928;2023-04-25T10:19:08;7.80;;;3.97;;
45049;SDS011;61798;48.048;-1.928;2023-04-25T10:21:15;8.23;;;3.88;;
45049;SDS011;61798;48.048;-1.928;2023-04-25T10:23:21;12.30;;;4.25;;
45049;SDS011;61798;48.048;-1.928;2023-04-25T10:25:29;8.55;;;4.63;;
45049;SDS011;61798;48.048;-1.928;2023-04-25T10:27:35;7.95;;;4.07;;
45049;SDS011;61798;48.048;-1.928;2023-04-25T10:29:43;6.50;;;3.88;;
45049;SDS011;61798;48.048;-1.928;2023-04-25T10:31:49;6.05;;;3.97;;
45049;SDS011;61798;48.048;-1.928;2023-04-25T10:33:56;7.18;;;3.78;;
45049;SDS011;61798;48.048;-1.928;2023-04-25T10:36:11;9.73;;;3.92;;
45049;SDS011;61798;48.048;-1.928;2023-04-25T10:38:23;6.60;;;3.60;;
45049;SDS011;61798;48.048;-1.928;2023-04-25T10:40:35;6.35;;;3.92;;
45049;SDS011;61798;48.048;-1.928;2023-04-25T10:42:41;6.85;;;4.05;;
45049;SDS011;61798;48.048;-1.928;2023-04-25T10:45:09;7.68;;;5.07;;
45049;SDS011;61798;48.048;-1.928;2023-04-25T10:47:15;9.23;;;5.50;;
45049;SDS011;61798;48.048;-1.928;2023-04-25T10:49:42;10.75;;;5.03;;
45049;SDS011;61798;48.048;-1.928;2023-04-25T10:51:48;7.40;;;5.43;;
45049;SDS011;61798;48.048;-1.928;2023-04-25T10:54:07;8.15;;;5.05;;
45049;SDS011;61798;48.048;-1.928;2023-04-25T10:56:16;6.93;;;4.68;;
45049;SDS011;61798;48.048;-1.928;2023-04-25T10:58:23;5.38;;;3.85;;
45049;SDS011;61798;48.048;-1.928;2023-04-25T11:00:29;7.47;;;4.70;;
45049;SDS011;61798;48.048;-1.928;2023-04-25T11:02:36;6.47;;;4.43;;
45049;SDS011;61798;48.048;-1.928;2023-04-25T11:04:52;5.80;;;4.22;;
45049;SDS011;61798;48.048;-1.928;2023-04-25T11:09:11;6.85;;;3.50;;
45049;SDS011;61798;48.048;-1.928;2023-04-25T11:11:20;7.72;;;4.53;;
45049;SDS011;61798;48.048;-1.928;2023-04-25T11:13:29;6.90;;;3.80;;
45049;SDS011;61798;48.048;-1.928;2023-04-25T11:15:35;6.43;;;3.60;;
45049;SDS011;61798;48.048;-1.928;2023-04-25T11:17:43;5.07;;;3.40;;
45049;SDS011;61798;48.048;-1.928;2023-04-25T11:19:53;5.15;;;3.28;;
45049;SDS011;61798;48.048;-1.928;2023-04-25T11:22:01;5.80;;;3.28;;
45049;SDS011;61798;48.048;-1.928;2023-04-25T11:24:09;6.50;;;3.72;;
45049;SDS011;61798;48.048;-1.928;2023-04-25T11:26:16;6.22;;;3.17;;
45049;SDS011;61798;48.048;-1.928;2023-04-25T11:28:25;5.63;;;3.40;;
45049;SDS011;61798;48.048;-1.928;2023-04-25T11:30:33;5.53;;;4.10;;
45049;SDS011;61798;48.048;-1.928;2023-04-25T11:32:40;5.85;;;4.45;;
45049;SDS011;61798;48.048;-1.928;2023-04-25T11:34:49;5.63;;;3.83;;
45049;SDS011;61798;48.048;-1.928;2023-04-25T11:36:56;6.88;;;3.67;;
45049;SDS011;61798;48.048;-1.928;2023-04-25T11:39:03;5.55;;;3.33;;
45049;SDS011;61798;48.048;-1.928;2023-04-25T11:41:10;5.25;;;3.63;;
45049;SDS011;61798;48.048;-1.928;2023-04-25T11:43:20;8.00;;;4.15;;
45049;SDS011;61798;48.048;-1.928;2023-04-25T11:45:28;7.82;;;4.00;;
45049;SDS011;61798;48.048;-1.928;2023-04-25T11:47:37;5.78;;;3.53;;
45049;SDS011;61798;48.048;-1.928;2023-04-25T11:49:44;5.40;;;3.38;;
45049;SDS011;61798;48.048;-1.928;2023-04-25T11:51:51;6.82;;;3.33;;
45049;SDS011;61798;48.048;-1.928;2023-04-25T11:53:58;4.45;;;2.95;;
45049;SDS011;61798;48.048;-1.928;2023-04-25T11:56:08;7.53;;;3.33;;
45049;SDS011;61798;48.048;-1.928;2023-04-25T11:58:17;4.68;;;2.80;;
45049;SDS011;61798;48.048;-1.928;2023-04-25T12:00:25;6.32;;;3.05;;
45049;SDS011;61798;48.048;-1.928;2023-04-25T12:02:34;3.47;;;2.63;;
45049;SDS011;61798;48.048;-1.928;2023-04-25T12:04:42;6.32;;;2.83;;
45049;SDS011;61798;48.048;-1.928;2023-04-25T12:06:49;5.22;;;2.72;;
45049;SDS011;61798;48.048;-1.928;2023-04-25T12:09:04;4.80;;;2.70;;
45049;SDS011;61798;48.048;-1.928;2023-04-25T12:11:22;6.15;;;2.90;;
45049;SDS011;61798;48.048;-1.928;2023-04-25T12:13:31;8.48;;;3.03;;
45049;SDS011;61798;48.048;-1.928;2023-04-25T12:15:40;5.85;;;2.78;;
45049;SDS011;61798;48.048;-1.928;2023-04-25T12:17:47;4.35;;;2.80;;
45049;SDS011;61798;48.048;-1.928;2023-04-25T12:19:55;7.75;;;3.20;;
45049;SDS011;61798;48.048;-1.928;2023-04-25T12:22:03;4.55;;;2.55;;
45049;SDS011;61798;48.048;-1.928;2023-04-25T12:24:25;7.20;;;2.78;;
45049;SDS011;61798;48.048;-1.928;2023-04-25T12:29:22;5.10;;;2.97;;
45049;SDS011;61798;48.048;-1.928;2023-04-25T12:31:30;5.18;;;2.50;;
45049;SDS011;61798;48.048;-1.928;2023-04-25T12:33:38;3.92;;;2.65;;
45049;SDS011;61798;48.048;-1.928;2023-04-25T12:35:46;4.70;;;2.80;;
45049;SDS011;61798;48.048;-1.928;2023-04-25T12:37:52;3.08;;;2.50;;
45049;SDS011;61798;48.048;-1.928;2023-04-25T12:39:58;6.85;;;3.10;;